sensor_id;sensor_type;location;lat;lon;timestamp;P1;durP1;ratioP1;P2;durP2;ratioP2
142;SDS011;63667;49.046;8.468;2023-04-24T00:01:50;5.73;;;2.30;;
142;SDS011;63667;49.046;8.468;2023-04-24T00:04:18;3.37;;;2.33;;
142;SDS011;63667;49.046;8.468;2023-04-24T00:06:45;3.33;;;2.10;;
142;SDS011;63667;49.046;8.468;2023-04-24T00:09:15;2.63;;;2.13;;
142;SDS011;63667;49.046;8.468;2023-04-24T00:11:42;4.37;;;2.23;;
142;SDS011;63667;49.046;8.468;2023-04-24T00:14:10;3.63;;;2.20;;
142;SDS011;63667;49.046;8.468;2023-04-24T00:16:37;3.17;;;2.20;;
142;SDS011;63667;49.046;8.468;2023-04-24T00:19:04;2.40;;;2.20;;
142;SDS011;63667;49.046;8.468;2023-04-24T00:21:32;2.50;;;2.20;;
142;SDS011;63667;49.046;8.468;2023-04-24T00:23:59;6.93;;;2.40;;
142;SDS011;63667;49.046;8.468;2023-04-24T00:26:27;3.07;;;2.37;;
142;SDS011;63667;49.046;8.468;2023-04-24T00:28:54;4.67;;;2.10;;
142;SDS011;63667;49.046;8.468;2023-04-24T00:31:22;8.20;;;2.37;;
142;SDS011;63667;49.046;8.468;2023-04-24T00:33:49;4.30;;;2.23;;
142;SDS011;63667;49.046;8.468;2023-04-24T00:36:16;6.60;;;2.10;;
142;SDS011;63667;49.046;8.468;2023-04-24T00:38:46;3.73;;;2.10;;
142;SDS011;63667;49.046;8.468;2023-04-24T00:41:13;10.33;;;2.67;;
142;SDS011;63667;49.046;8.468;2023-04-24T00:43:41;3.63;;;1.80;;
142;SDS011;63667;49.046;8.468;2023-04-24T00:46:09;5.60;;;2.20;;
142;SDS011;63667;49.046;8.468;2023-04-24T00:48:37;2.93;;;2.10;;
142;SDS011;63667;49.046;8.468;2023-04-24T00:51:05;3.73;;;2.23;;
142;SDS011;63667;49.046;8.468;2023-04-24T00:53:32;6.07;;;2.03;;
142;SDS011;63667;49.046;8.468;2023-04-24T00:55:59;2.50;;;2.20;;
142;SDS011;63667;49.046;8.468;2023-04-24T00:58:26;3.20;;;2.53;;
142;SDS011;63667;49.046;8.468;2023-04-24T01:00:54;2.77;;;2.13;;
142;SDS011;63667;49.046;8.468;2023-04-24T01:03:24;3.20;;;2.20;;
142;SDS011;63667;49.046;8.468;2023-04-24T01:05:51;4.10;;;1.90;;
142;SDS011;63667;49.046;8.468;2023-04-24T01:08:18;7.90;;;2.20;;
142;SDS011;63667;49.046;8.468;2023-04-24T01:10:46;3.03;;;2.27;;
142;SDS011;63667;49.046;8.468;2023-04-24T01:13:13;4.03;;;2.00;;
142;SDS011;63667;49.046;8.468;2023-04-24T01:15:39;2.60;;;2.00;;
142;SDS011;63667;49.046;8.468;2023-04-24T01:18:07;3.80;;;2.20;;
142;SDS011;63667;49.046;8.468;2023-04-24T01:20:35;4.40;;;2.60;;
142;SDS011;63667;49.046;8.468;2023-04-24T01:23:06;3.90;;;2.13;;
142;SDS011;63667;49.046;8.468;2023-04-24T01:25:33;3.23;;;2.10;;
142;SDS011;63667;49.046;8.468;2023-04-24T01:28:00;2.90;;;2.10;;
142;SDS011;63667;49.046;8.468;2023-04-24T01:30:27;2.90;;;2.10;;
142;SDS011;63667;49.046;8.468;2023-04-24T01:32:54;8.67;;;2.60;;
142;SDS011;63667;49.046;8.468;2023-04-24T01:35:22;3.40;;;1.97;;
142;SDS011;63667;49.046;8.468;2023-04-24T01:37:50;3.87;;;2.20;;
142;SDS011;63667;49.046;8.468;2023-04-24T01:40:17;3.20;;;2.03;;
142;SDS011;63667;49.046;8.468;2023-04-24T01:42:45;2.97;;;2.37;;
142;SDS011;63667;49.046;8.468;2023-04-24T01:45:13;9.40;;;2.57;;
142;SDS011;63667;49.046;8.468;2023-04-24T01:47:40;2.33;;;2.17;;
142;SDS011;63667;49.046;8.468;2023-04-24T01:50:07;2.40;;;2.00;;
142;SDS011;63667;49.046;8.468;2023-04-24T01:52:34;3.77;;;2.33;;
142;SDS011;63667;49.046;8.468;2023-04-24T01:55:02;3.80;;;2.30;;
142;SDS011;63667;49.046;8.468;2023-04-24T01:57:31;3.23;;;2.13;;
142;SDS011;63667;49.046;8.468;2023-04-24T02:00:00;2.60;;;2.10;;
142;SDS011;63667;49.046;8.468;2023-04-24T02:02:27;6.73;;;2.60;;
142;SDS011;63667;49.046;8.468;2023-04-24T02:04:54;5.33;;;2.70;;
142;SDS011;63667;49.046;8.468;2023-04-24T02:07:22;3.87;;;2.47;;
142;SDS011;63667;49.046;8.468;2023-04-24T02:09:48;3.03;;;2.20;;
142;SDS011;63667;49.046;8.468;2023-04-24T02:12:16;2.70;;;2.23;;
142;SDS011;63667;49.046;8.468;2023-04-24T02:14:43;5.90;;;2.37;;
142;SDS011;63667;49.046;8.468;2023-04-24T02:17:10;3.10;;;2.33;;
142;SDS011;63667;49.046;8.468;2023-04-24T02:19:39;2.40;;;2.03;;
142;SDS011;63667;49.046;8.468;2023-04-24T02:22:05;2.50;;;2.20;;
142;SDS011;63667;49.046;8.468;2023-04-24T02:24:33;3.27;;;2.50;;
142;SDS011;63667;49.046;8.468;2023-04-24T02:27:00;2.63;;;2.10;;
142;SDS011;63667;49.046;8.468;2023-04-24T02:29:28;2.77;;;2.23;;
142;SDS011;63667;49.046;8.468;2023-04-24T02:31:56;6.17;;;2.50;;
142;SDS011;63667;49.046;8.468;2023-04-24T02:34:23;2.87;;;2.40;;
142;SDS011;63667;49.046;8.468;2023-04-24T02:36:50;4.13;;;2.30;;
142;SDS011;63667;49.046;8.468;2023-04-24T02:39:19;5.13;;;2.20;;
142;SDS011;63667;49.046;8.468;2023-04-24T02:41:47;5.00;;;2.23;;
142;SDS011;63667;49.046;8.468;2023-04-24T02:44:15;3.03;;;2.40;;
142;SDS011;63667;49.046;8.468;2023-04-24T02:46:43;2.80;;;2.30;;
142;SDS011;63667;49.046;8.468;2023-04-24T02:49:10;4.00;;;2.60;;
142;SDS011;63667;49.046;8.468;2023-04-24T02:51:38;4.30;;;2.20;;
142;SDS011;63667;49.046;8.468;2023-04-24T02:54:07;2.73;;;2.17;;
142;SDS011;63667;49.046;8.468;2023-04-24T02:56:35;4.50;;;2.60;;
142;SDS011;63667;49.046;8.468;2023-04-24T02:59:03;3.63;;;2.10;;
142;SDS011;63667;49.046;8.468;2023-04-24T03:01:31;5.20;;;2.40;;
142;SDS011;63667;49.046;8.468;2023-04-24T03:03:58;8.93;;;2.30;;
142;SDS011;63667;49.046;8.468;2023-04-24T03:06:26;3.30;;;2.43;;
142;SDS011;63667;49.046;8.468;2023-04-24T03:08:54;3.80;;;2.40;;
142;SDS011;63667;49.046;8.468;2023-04-24T03:11:22;7.50;;;2.23;;
142;SDS011;63667;49.046;8.468;2023-04-24T03:13:50;3.40;;;2.40;;
142;SDS011;63667;49.046;8.468;2023-04-24T03:16:18;2.90;;;2.27;;
142;SDS011;63667;49.046;8.468;2023-04-24T03:18:45;4.27;;;2.97;;
142;SDS011;63667;49.046;8.468;2023-04-24T03:21:13;8.83;;;2.80;;
142;SDS011;63667;49.046;8.468;2023-04-24T03:23:40;3.23;;;2.67;;
142;SDS011;63667;49.046;8.468;2023-04-24T03:26:07;3.20;;;2.80;;
142;SDS011;63667;49.046;8.468;2023-04-24T03:28:34;3.60;;;2.70;;
142;SDS011;63667;49.046;8.468;2023-04-24T03:31:02;3.90;;;2.83;;
142;SDS011;63667;49.046;8.468;2023-04-24T03:33:29;6.40;;;3.33;;
142;SDS011;63667;49.046;8.468;2023-04-24T03:35:57;7.00;;;4.20;;
142;SDS011;63667;49.046;8.468;2023-04-24T03:38:24;6.07;;;3.67;;
142;SDS011;63667;49.046;8.468;2023-04-24T03:40:52;4.60;;;3.70;;
142;SDS011;63667;49.046;8.468;2023-04-24T03:43:20;6.03;;;3.60;;
142;SDS011;63667;49.046;8.468;2023-04-24T03:45:47;5.80;;;4.47;;
142;SDS011;63667;49.046;8.468;2023-04-24T03:48:15;7.93;;;4.70;;
142;SDS011;63667;49.046;8.468;2023-04-24T03:50:42;6.17;;;4.60;;
142;SDS011;63667;49.046;8.468;2023-04-24T03:53:10;6.57;;;4.30;;
142;SDS011;63667;49.046;8.468;2023-04-24T03:55:37;6.97;;;3.70;;
142;SDS011;63667;49.046;8.468;2023-04-24T03:58:05;8.83;;;3.70;;
142;SDS011;63667;49.046;8.468;2023-04-24T04:00:33;5.33;;;3.87;;
142;SDS011;63667;49.046;8.468;2023-04-24T04:03:00;4.97;;;3.77;;
142;SDS011;63667;49.046;8.468;2023-04-24T04:05:27;7.80;;;3.50;;
142;SDS011;63667;49.046;8.468;2023-04-24T04:07:55;4.77;;;3.40;;
142;SDS011;63667;49.046;8.468;2023-04-24T04:10:23;5.23;;;3.37;;
142;SDS011;63667;49.046;8.468;2023-04-24T04:12:50;8.60;;;4.33;;
142;SDS011;63667;49.046;8.468;2023-04-24T04:15:18;4.80;;;3.60;;
142;SDS011;63667;49.046;8.468;2023-04-24T04:17:45;4.87;;;3.50;;
142;SDS011;63667;49.046;8.468;2023-04-24T04:20:12;5.60;;;3.40;;
142;SDS011;63667;49.046;8.468;2023-04-24T04:22:38;6.40;;;3.10;;
142;SDS011;63667;49.046;8.468;2023-04-24T04:25:05;6.53;;;3.60;;
142;SDS011;63667;49.046;8.468;2023-04-24T04:27:33;4.40;;;3.20;;
142;SDS011;63667;49.046;8.468;2023-04-24T04:30:00;9.87;;;3.63;;
142;SDS011;63667;49.046;8.468;2023-04-24T04:32:33;3.53;;;3.20;;
142;SDS011;63667;49.046;8.468;2023-04-24T04:35:01;3.90;;;3.27;;
142;SDS011;63667;49.046;8.468;2023-04-24T04:37:29;4.23;;;3.60;;
142;SDS011;63667;49.046;8.468;2023-04-24T04:39:56;4.70;;;3.10;;
142;SDS011;63667;49.046;8.468;2023-04-24T04:42:26;8.10;;;3.40;;
142;SDS011;63667;49.046;8.468;2023-04-24T04:44:55;4.80;;;3.13;;
142;SDS011;63667;49.046;8.468;2023-04-24T04:47:24;5.20;;;3.43;;
142;SDS011;63667;49.046;8.468;2023-04-24T04:49:52;3.93;;;3.40;;
142;SDS011;63667;49.046;8.468;2023-04-24T04:52:18;6.67;;;4.10;;
142;SDS011;63667;49.046;8.468;2023-04-24T04:54:46;6.17;;;3.80;;
142;SDS011;63667;49.046;8.468;2023-04-24T04:57:12;10.27;;;4.20;;
142;SDS011;63667;49.046;8.468;2023-04-24T04:59:39;9.03;;;4.07;;
142;SDS011;63667;49.046;8.468;2023-04-24T05:02:07;5.87;;;4.23;;
142;SDS011;63667;49.046;8.468;2023-04-24T05:04:34;6.33;;;4.17;;
142;SDS011;63667;49.046;8.468;2023-04-24T05:07:03;7.40;;;4.47;;
142;SDS011;63667;49.046;8.468;2023-04-24T05:09:33;6.83;;;4.03;;
142;SDS011;63667;49.046;8.468;2023-04-24T05:11:59;5.33;;;4.17;;
142;SDS011;63667;49.046;8.468;2023-04-24T05:14:28;5.93;;;4.20;;
142;SDS011;63667;49.046;8.468;2023-04-24T05:16:56;5.80;;;3.70;;
142;SDS011;63667;49.046;8.468;2023-04-24T05:19:22;6.47;;;4.20;;
142;SDS011;63667;49.046;8.468;2023-04-24T05:21:50;5.33;;;4.07;;
142;SDS011;63667;49.046;8.468;2023-04-24T05:24:17;5.63;;;3.97;;
142;SDS011;63667;49.046;8.468;2023-04-24T05:26:45;6.97;;;4.00;;
142;SDS011;63667;49.046;8.468;2023-04-24T05:29:13;4.60;;;3.40;;
142;SDS011;63667;49.046;8.468;2023-04-24T05:31:39;8.53;;;4.20;;
142;SDS011;63667;49.046;8.468;2023-04-24T05:34:07;4.47;;;4.03;;
142;SDS011;63667;49.046;8.468;2023-04-24T05:36:35;4.30;;;4.00;;
142;SDS011;63667;49.046;8.468;2023-04-24T05:39:02;4.57;;;4.00;;
142;SDS011;63667;49.046;8.468;2023-04-24T05:41:30;5.10;;;4.10;;
142;SDS011;63667;49.046;8.468;2023-04-24T05:43:57;7.10;;;4.00;;
142;SDS011;63667;49.046;8.468;2023-04-24T05:46:25;4.10;;;3.80;;
142;SDS011;63667;49.046;8.468;2023-04-24T05:48:52;6.53;;;3.77;;
142;SDS011;63667;49.046;8.468;2023-04-24T05:51:18;5.10;;;3.63;;
142;SDS011;63667;49.046;8.468;2023-04-24T05:53:46;3.77;;;3.60;;
142;SDS011;63667;49.046;8.468;2023-04-24T05:56:12;4.67;;;3.80;;
142;SDS011;63667;49.046;8.468;2023-04-24T05:58:40;7.60;;;3.77;;
142;SDS011;63667;49.046;8.468;2023-04-24T06:01:08;4.10;;;3.43;;
142;SDS011;63667;49.046;8.468;2023-04-24T06:03:35;6.43;;;4.07;;
142;SDS011;63667;49.046;8.468;2023-04-24T06:06:02;5.57;;;3.93;;
142;SDS011;63667;49.046;8.468;2023-04-24T06:08:29;5.90;;;3.50;;
142;SDS011;63667;49.046;8.468;2023-04-24T06:10:55;6.60;;;3.40;;
142;SDS011;63667;49.046;8.468;2023-04-24T06:13:21;4.17;;;3.40;;
142;SDS011;63667;49.046;8.468;2023-04-24T06:15:49;5.03;;;3.53;;
142;SDS011;63667;49.046;8.468;2023-04-24T06:18:17;5.13;;;3.40;;
142;SDS011;63667;49.046;8.468;2023-04-24T06:21:02;5.03;;;3.27;;
142;SDS011;63667;49.046;8.468;2023-04-24T06:23:28;5.17;;;3.47;;
142;SDS011;63667;49.046;8.468;2023-04-24T06:25:57;3.07;;;2.97;;
142;SDS011;63667;49.046;8.468;2023-04-24T06:28:24;5.67;;;3.37;;
142;SDS011;63667;49.046;8.468;2023-04-24T06:30:51;6.17;;;3.50;;
142;SDS011;63667;49.046;8.468;2023-04-24T06:33:18;6.13;;;3.83;;
142;SDS011;63667;49.046;8.468;2023-04-24T06:35:46;4.63;;;3.60;;
142;SDS011;63667;49.046;8.468;2023-04-24T06:38:13;4.37;;;3.43;;
142;SDS011;63667;49.046;8.468;2023-04-24T06:40:41;8.47;;;3.97;;
142;SDS011;63667;49.046;8.468;2023-04-24T06:43:09;5.20;;;3.87;;
142;SDS011;63667;49.046;8.468;2023-04-24T06:45:36;4.90;;;3.70;;
142;SDS011;63667;49.046;8.468;2023-04-24T06:48:04;7.37;;;4.00;;
142;SDS011;63667;49.046;8.468;2023-04-24T06:50:32;6.63;;;3.23;;
142;SDS011;63667;49.046;8.468;2023-04-24T06:52:59;5.40;;;3.80;;
142;SDS011;63667;49.046;8.468;2023-04-24T06:55:26;11.27;;;3.83;;
142;SDS011;63667;49.046;8.468;2023-04-24T06:57:54;4.60;;;3.63;;
142;SDS011;63667;49.046;8.468;2023-04-24T07:00:21;6.77;;;4.17;;
142;SDS011;63667;49.046;8.468;2023-04-24T07:02:50;4.47;;;3.67;;
142;SDS011;63667;49.046;8.468;2023-04-24T07:05:17;5.90;;;4.20;;
142;SDS011;63667;49.046;8.468;2023-04-24T07:07:46;10.53;;;3.77;;
142;SDS011;63667;49.046;8.468;2023-04-24T07:10:15;7.73;;;4.80;;
142;SDS011;63667;49.046;8.468;2023-04-24T07:12:42;5.87;;;4.03;;
142;SDS011;63667;49.046;8.468;2023-04-24T07:15:10;4.50;;;3.13;;
142;SDS011;63667;49.046;8.468;2023-04-24T07:17:37;12.73;;;3.87;;
142;SDS011;63667;49.046;8.468;2023-04-24T07:20:09;5.10;;;3.93;;
142;SDS011;63667;49.046;8.468;2023-04-24T07:22:38;5.30;;;3.73;;
142;SDS011;63667;49.046;8.468;2023-04-24T07:25:05;6.30;;;3.93;;
142;SDS011;63667;49.046;8.468;2023-04-24T07:27:36;5.50;;;4.03;;
142;SDS011;63667;49.046;8.468;2023-04-24T07:30:03;3.93;;;3.40;;
142;SDS011;63667;49.046;8.468;2023-04-24T07:32:32;5.43;;;3.70;;
142;SDS011;63667;49.046;8.468;2023-04-24T07:35:00;3.93;;;3.50;;
142;SDS011;63667;49.046;8.468;2023-04-24T07:37:27;8.93;;;4.20;;
142;SDS011;63667;49.046;8.468;2023-04-24T07:39:54;3.77;;;3.50;;
142;SDS011;63667;49.046;8.468;2023-04-24T07:42:22;5.20;;;3.60;;
142;SDS011;63667;49.046;8.468;2023-04-24T07:44:49;4.47;;;4.03;;
142;SDS011;63667;49.046;8.468;2023-04-24T07:47:17;3.00;;;2.90;;
142;SDS011;63667;49.046;8.468;2023-04-24T07:49:45;5.80;;;3.70;;
142;SDS011;63667;49.046;8.468;2023-04-24T07:52:12;12.00;;;3.23;;
142;SDS011;63667;49.046;8.468;2023-04-24T07:54:39;4.80;;;3.17;;
142;SDS011;63667;49.046;8.468;2023-04-24T07:57:06;3.10;;;2.80;;
142;SDS011;63667;49.046;8.468;2023-04-24T07:59:34;5.53;;;2.73;;
142;SDS011;63667;49.046;8.468;2023-04-24T08:02:01;5.40;;;2.67;;
142;SDS011;63667;49.046;8.468;2023-04-24T08:04:28;3.53;;;2.70;;
142;SDS011;63667;49.046;8.468;2023-04-24T08:06:55;5.73;;;3.03;;
142;SDS011;63667;49.046;8.468;2023-04-24T08:09:22;3.83;;;2.93;;
142;SDS011;63667;49.046;8.468;2023-04-24T08:11:50;6.30;;;2.57;;
142;SDS011;63667;49.046;8.468;2023-04-24T08:14:17;4.70;;;2.90;;
142;SDS011;63667;49.046;8.468;2023-04-24T08:16:44;4.30;;;2.90;;
142;SDS011;63667;49.046;8.468;2023-04-24T08:19:12;5.57;;;3.67;;
142;SDS011;63667;49.046;8.468;2023-04-24T08:21:39;4.77;;;3.03;;
142;SDS011;63667;49.046;8.468;2023-04-24T08:24:06;3.30;;;3.10;;
142;SDS011;63667;49.046;8.468;2023-04-24T08:26:34;6.53;;;3.00;;
142;SDS011;63667;49.046;8.468;2023-04-24T08:29:01;3.80;;;2.93;;
142;SDS011;63667;49.046;8.468;2023-04-24T08:31:29;4.97;;;3.33;;
142;SDS011;63667;49.046;8.468;2023-04-24T08:33:56;4.20;;;3.30;;
142;SDS011;63667;49.046;8.468;2023-04-24T08:36:28;5.10;;;3.23;;
142;SDS011;63667;49.046;8.468;2023-04-24T08:38:56;4.20;;;2.80;;
142;SDS011;63667;49.046;8.468;2023-04-24T08:41:25;11.43;;;3.00;;
142;SDS011;63667;49.046;8.468;2023-04-24T08:43:53;3.27;;;2.40;;
142;SDS011;63667;49.046;8.468;2023-04-24T08:46:24;5.73;;;2.40;;
142;SDS011;63667;49.046;8.468;2023-04-24T08:48:52;6.50;;;2.50;;
142;SDS011;63667;49.046;8.468;2023-04-24T08:51:21;3.80;;;2.40;;
142;SDS011;63667;49.046;8.468;2023-04-24T08:53:51;3.23;;;2.80;;
142;SDS011;63667;49.046;8.468;2023-04-24T08:56:22;3.73;;;2.83;;
142;SDS011;63667;49.046;8.468;2023-04-24T08:58:51;4.60;;;3.17;;
142;SDS011;63667;49.046;8.468;2023-04-24T09:01:23;3.83;;;3.00;;
142;SDS011;63667;49.046;8.468;2023-04-24T09:03:53;4.00;;;2.73;;
142;SDS011;63667;49.046;8.468;2023-04-24T09:06:26;4.50;;;3.10;;
142;SDS011;63667;49.046;8.468;2023-04-24T09:08:59;3.80;;;3.33;;
142;SDS011;63667;49.046;8.468;2023-04-24T09:11:30;4.73;;;3.17;;
142;SDS011;63667;49.046;8.468;2023-04-24T09:13:58;8.27;;;3.57;;
142;SDS011;63667;49.046;8.468;2023-04-24T09:16:26;5.23;;;3.30;;
142;SDS011;63667;49.046;8.468;2023-04-24T09:18:55;6.40;;;4.10;;
142;SDS011;63667;49.046;8.468;2023-04-24T09:21:22;7.63;;;3.90;;
142;SDS011;63667;49.046;8.468;2023-04-24T09:23:59;4.87;;;3.60;;
142;SDS011;63667;49.046;8.468;2023-04-24T09:26:31;5.30;;;3.53;;
142;SDS011;63667;49.046;8.468;2023-04-24T09:28:59;5.83;;;3.33;;
142;SDS011;63667;49.046;8.468;2023-04-24T09:31:27;6.00;;;4.10;;
142;SDS011;63667;49.046;8.468;2023-04-24T09:33:56;4.63;;;3.63;;
142;SDS011;63667;49.046;8.468;2023-04-24T09:36:32;5.10;;;4.10;;
142;SDS011;63667;49.046;8.468;2023-04-24T09:39:01;5.93;;;4.50;;
142;SDS011;63667;49.046;8.468;2023-04-24T09:41:28;8.30;;;5.50;;
142;SDS011;63667;49.046;8.468;2023-04-24T09:43:55;10.67;;;4.87;;
142;SDS011;63667;49.046;8.468;2023-04-24T09:46:30;7.57;;;5.10;;
142;SDS011;63667;49.046;8.468;2023-04-24T09:48:57;6.30;;;4.67;;
142;SDS011;63667;49.046;8.468;2023-04-24T09:51:35;9.20;;;5.73;;
142;SDS011;63667;49.046;8.468;2023-04-24T09:54:03;8.10;;;5.30;;
142;SDS011;63667;49.046;8.468;2023-04-24T09:56:33;9.10;;;4.97;;
142;SDS011;63667;49.046;8.468;2023-04-24T09:59:04;7.47;;;5.13;;
142;SDS011;63667;49.046;8.468;2023-04-24T10:01:32;10.37;;;5.27;;
142;SDS011;63667;49.046;8.468;2023-04-24T10:03:59;5.50;;;4.27;;
142;SDS011;63667;49.046;8.468;2023-04-24T10:06:34;6.90;;;5.27;;
142;SDS011;63667;49.046;8.468;2023-04-24T10:09:01;8.20;;;4.70;;
142;SDS011;63667;49.046;8.468;2023-04-24T10:11:29;6.97;;;4.23;;
142;SDS011;63667;49.046;8.468;2023-04-24T10:13:56;6.77;;;4.40;;
142;SDS011;63667;49.046;8.468;2023-04-24T10:16:24;5.47;;;4.10;;
142;SDS011;63667;49.046;8.468;2023-04-24T10:18:52;5.80;;;4.10;;
142;SDS011;63667;49.046;8.468;2023-04-24T10:21:21;7.30;;;4.10;;
142;SDS011;63667;49.046;8.468;2023-04-24T10:23:48;8.17;;;4.50;;
142;SDS011;63667;49.046;8.468;2023-04-24T10:26:16;5.27;;;3.60;;
142;SDS011;63667;49.046;8.468;2023-04-24T10:28:45;7.50;;;3.93;;
142;SDS011;63667;49.046;8.468;2023-04-24T10:31:13;5.13;;;3.90;;
142;SDS011;63667;49.046;8.468;2023-04-24T10:33:41;9.33;;;3.60;;
142;SDS011;63667;49.046;8.468;2023-04-24T10:36:11;5.50;;;3.87;;
142;SDS011;63667;49.046;8.468;2023-04-24T10:38:55;6.30;;;4.10;;
142;SDS011;63667;49.046;8.468;2023-04-24T10:41:23;7.27;;;4.67;;
142;SDS011;63667;49.046;8.468;2023-04-24T10:44:05;7.00;;;4.40;;
142;SDS011;63667;49.046;8.468;2023-04-24T10:46:32;6.20;;;4.20;;
142;SDS011;63667;49.046;8.468;2023-04-24T10:49:00;4.80;;;4.30;;
142;SDS011;63667;49.046;8.468;2023-04-24T10:51:45;5.73;;;3.90;;
142;SDS011;63667;49.046;8.468;2023-04-24T10:54:25;6.73;;;4.70;;
142;SDS011;63667;49.046;8.468;2023-04-24T10:56:52;9.70;;;5.23;;
142;SDS011;63667;49.046;8.468;2023-04-24T10:59:26;9.10;;;4.33;;
142;SDS011;63667;49.046;8.468;2023-04-24T11:01:54;6.87;;;5.00;;
142;SDS011;63667;49.046;8.468;2023-04-24T11:04:33;8.17;;;5.20;;
142;SDS011;63667;49.046;8.468;2023-04-24T11:07:19;7.40;;;5.07;;
142;SDS011;63667;49.046;8.468;2023-04-24T11:09:47;7.67;;;5.10;;
142;SDS011;63667;49.046;8.468;2023-04-24T11:12:23;8.97;;;5.17;;
142;SDS011;63667;49.046;8.468;2023-04-24T11:17:36;9.43;;;5.50;;
142;SDS011;63667;49.046;8.468;2023-04-24T11:20:10;8.73;;;4.97;;
142;SDS011;63667;49.046;8.468;2023-04-24T11:22:38;7.70;;;5.80;;
142;SDS011;63667;49.046;8.468;2023-04-24T11:25:09;7.83;;;5.60;;
142;SDS011;63667;49.046;8.468;2023-04-24T11:27:41;11.93;;;5.63;;
142;SDS011;63667;49.046;8.468;2023-04-24T11:30:08;12.93;;;5.63;;
142;SDS011;63667;49.046;8.468;2023-04-24T11:32:40;7.73;;;5.90;;
142;SDS011;63667;49.046;8.468;2023-04-24T11:37:38;8.40;;;5.60;;
142;SDS011;63667;49.046;8.468;2023-04-24T11:40:06;9.30;;;6.17;;
142;SDS011;63667;49.046;8.468;2023-04-24T11:42:34;11.50;;;5.40;;
142;SDS011;63667;49.046;8.468;2023-04-24T11:45:06;7.90;;;5.60;;
142;SDS011;63667;49.046;8.468;2023-04-24T11:47:33;8.20;;;5.80;;
142;SDS011;63667;49.046;8.468;2023-04-24T11:50:01;7.37;;;5.60;;
142;SDS011;63667;49.046;8.468;2023-04-24T11:52:29;9.50;;;5.67;;
142;SDS011;63667;49.046;8.468;2023-04-24T11:54:56;8.07;;;5.53;;
142;SDS011;63667;49.046;8.468;2023-04-24T11:57:24;8.47;;;5.33;;
142;SDS011;63667;49.046;8.468;2023-04-24T11:59:54;8.10;;;5.70;;
142;SDS011;63667;49.046;8.468;2023-04-24T12:02:25;8.60;;;5.23;;
142;SDS011;63667;49.046;8.468;2023-04-24T12:04:53;6.93;;;5.20;;
142;SDS011;63667;49.046;8.468;2023-04-24T12:07:21;6.33;;;5.50;;
142;SDS011;63667;49.046;8.468;2023-04-24T12:09:56;8.77;;;5.50;;
142;SDS011;63667;49.046;8.468;2023-04-24T12:12:24;9.33;;;6.10;;
142;SDS011;63667;49.046;8.468;2023-04-24T12:14:55;7.83;;;5.33;;
142;SDS011;63667;49.046;8.468;2023-04-24T12:17:30;10.10;;;5.13;;
142;SDS011;63667;49.046;8.468;2023-04-24T12:20:04;8.83;;;6.57;;
142;SDS011;63667;49.046;8.468;2023-04-24T12:25:15;8.60;;;6.20;;
142;SDS011;63667;49.046;8.468;2023-04-24T12:27:43;10.43;;;6.60;;
142;SDS011;63667;49.046;8.468;2023-04-24T12:30:14;9.90;;;5.70;;
142;SDS011;63667;49.046;8.468;2023-04-24T12:32:42;8.23;;;5.13;;
142;SDS011;63667;49.046;8.468;2023-04-24T12:35:09;9.73;;;5.90;;
142;SDS011;63667;49.046;8.468;2023-04-24T12:37:36;10.80;;;5.43;;
142;SDS011;63667;49.046;8.468;2023-04-24T12:40:06;11.13;;;5.60;;
142;SDS011;63667;49.046;8.468;2023-04-24T12:42:33;10.10;;;5.67;;
142;SDS011;63667;49.046;8.468;2023-04-24T12:45:02;10.80;;;6.23;;
142;SDS011;63667;49.046;8.468;2023-04-24T12:47:31;10.43;;;5.90;;
142;SDS011;63667;49.046;8.468;2023-04-24T12:49:58;8.73;;;6.13;;
142;SDS011;63667;49.046;8.468;2023-04-24T12:52:26;6.60;;;5.20;;
142;SDS011;63667;49.046;8.468;2023-04-24T12:54:54;8.40;;;5.60;;
142;SDS011;63667;49.046;8.468;2023-04-24T12:57:22;8.90;;;5.47;;
142;SDS011;63667;49.046;8.468;2023-04-24T12:59:50;10.00;;;5.40;;
142;SDS011;63667;49.046;8.468;2023-04-24T13:02:17;11.13;;;5.50;;
142;SDS011;63667;49.046;8.468;2023-04-24T13:04:45;9.97;;;5.30;;
142;SDS011;63667;49.046;8.468;2023-04-24T13:07:12;11.30;;;5.90;;
142;SDS011;63667;49.046;8.468;2023-04-24T13:09:41;12.33;;;5.17;;
142;SDS011;63667;49.046;8.468;2023-04-24T13:12:09;6.53;;;4.80;;
142;SDS011;63667;49.046;8.468;2023-04-24T13:14:37;6.43;;;4.90;;
142;SDS011;63667;49.046;8.468;2023-04-24T13:17:04;9.93;;;5.80;;
142;SDS011;63667;49.046;8.468;2023-04-24T13:19:36;8.23;;;5.33;;
142;SDS011;63667;49.046;8.468;2023-04-24T13:22:03;8.73;;;4.20;;
142;SDS011;63667;49.046;8.468;2023-04-24T13:24:31;6.10;;;4.80;;
142;SDS011;63667;49.046;8.468;2023-04-24T13:26:59;6.97;;;4.67;;
142;SDS011;63667;49.046;8.468;2023-04-24T13:29:26;6.53;;;4.87;;
142;SDS011;63667;49.046;8.468;2023-04-24T13:31:54;9.10;;;5.37;;
142;SDS011;63667;49.046;8.468;2023-04-24T13:34:24;7.27;;;5.20;;
142;SDS011;63667;49.046;8.468;2023-04-24T13:36:52;9.97;;;6.43;;
142;SDS011;63667;49.046;8.468;2023-04-24T13:39:38;9.50;;;4.93;;
142;SDS011;63667;49.046;8.468;2023-04-24T13:42:07;8.63;;;5.70;;
142;SDS011;63667;49.046;8.468;2023-04-24T13:44:34;8.47;;;5.70;;
142;SDS011;63667;49.046;8.468;2023-04-24T13:47:01;16.03;;;6.17;;
142;SDS011;63667;49.046;8.468;2023-04-24T13:49:29;7.60;;;5.40;;
142;SDS011;63667;49.046;8.468;2023-04-24T13:51:56;9.00;;;6.00;;
142;SDS011;63667;49.046;8.468;2023-04-24T13:54:24;9.57;;;5.90;;
142;SDS011;63667;49.046;8.468;2023-04-24T13:56:51;7.90;;;5.33;;
142;SDS011;63667;49.046;8.468;2023-04-24T13:59:19;7.03;;;5.20;;
142;SDS011;63667;49.046;8.468;2023-04-24T14:02:06;8.30;;;5.57;;
142;SDS011;63667;49.046;8.468;2023-04-24T14:04:33;10.93;;;5.40;;
142;SDS011;63667;49.046;8.468;2023-04-24T14:07:01;9.90;;;5.30;;
142;SDS011;63667;49.046;8.468;2023-04-24T14:09:28;6.30;;;5.03;;
142;SDS011;63667;49.046;8.468;2023-04-24T14:11:55;8.83;;;5.50;;
142;SDS011;63667;49.046;8.468;2023-04-24T14:14:23;8.17;;;4.93;;
142;SDS011;63667;49.046;8.468;2023-04-24T14:16:50;6.90;;;4.80;;
142;SDS011;63667;49.046;8.468;2023-04-24T14:19:18;6.47;;;4.73;;
142;SDS011;63667;49.046;8.468;2023-04-24T14:21:46;8.03;;;4.87;;
142;SDS011;63667;49.046;8.468;2023-04-24T14:24:13;7.70;;;4.80;;
142;SDS011;63667;49.046;8.468;2023-04-24T14:26:41;6.57;;;4.53;;
142;SDS011;63667;49.046;8.468;2023-04-24T14:29:08;8.17;;;4.50;;
142;SDS011;63667;49.046;8.468;2023-04-24T14:31:36;10.07;;;4.47;;
142;SDS011;63667;49.046;8.468;2023-04-24T14:34:03;4.43;;;3.87;;
142;SDS011;63667;49.046;8.468;2023-04-24T14:36:30;7.40;;;5.00;;
142;SDS011;63667;49.046;8.468;2023-04-24T14:38:58;7.00;;;4.93;;
142;SDS011;63667;49.046;8.468;2023-04-24T14:41:25;7.33;;;4.60;;
142;SDS011;63667;49.046;8.468;2023-04-24T14:43:52;9.40;;;5.00;;
142;SDS011;63667;49.046;8.468;2023-04-24T14:46:20;5.60;;;4.20;;
142;SDS011;63667;49.046;8.468;2023-04-24T14:48:47;6.73;;;4.60;;
142;SDS011;63667;49.046;8.468;2023-04-24T14:51:15;7.33;;;4.50;;
142;SDS011;63667;49.046;8.468;2023-04-24T14:53:42;6.90;;;4.50;;
142;SDS011;63667;49.046;8.468;2023-04-24T14:56:12;4.10;;;3.83;;
142;SDS011;63667;49.046;8.468;2023-04-24T14:58:39;5.10;;;4.30;;
142;SDS011;63667;49.046;8.468;2023-04-24T15:01:07;8.10;;;4.63;;
142;SDS011;63667;49.046;8.468;2023-04-24T15:03:34;8.60;;;4.30;;
142;SDS011;63667;49.046;8.468;2023-04-24T15:06:01;5.93;;;3.97;;
142;SDS011;63667;49.046;8.468;2023-04-24T15:08:28;7.83;;;4.73;;
142;SDS011;63667;49.046;8.468;2023-04-24T15:10:56;5.27;;;4.03;;
142;SDS011;63667;49.046;8.468;2023-04-24T15:13:23;5.93;;;4.30;;
142;SDS011;63667;49.046;8.468;2023-04-24T15:15:50;6.33;;;4.13;;
142;SDS011;63667;49.046;8.468;2023-04-24T15:18:18;5.53;;;4.10;;
142;SDS011;63667;49.046;8.468;2023-04-24T15:20:45;5.13;;;4.20;;
142;SDS011;63667;49.046;8.468;2023-04-24T15:23:12;6.53;;;4.03;;
142;SDS011;63667;49.046;8.468;2023-04-24T15:25:46;6.23;;;4.10;;
142;SDS011;63667;49.046;8.468;2023-04-24T15:28:13;5.70;;;4.13;;
142;SDS011;63667;49.046;8.468;2023-04-24T15:30:44;4.80;;;4.17;;